Back to Top

Language: 

My Weather Underground Personal Weather Station Historical Data with Graphs...

Delerius Weather Station Historical Data
Daily Summary for February 23, 2017 Units:  Both    English   Metric
« Previous Day
Next Day »
Daily Weekly Monthly Yearly Custom
  High: Low: Average:
Temperature: 49.0 °F /  9.4 °C 38.9 °F /  3.8 °C 43.4 °F /  6.3 °C
Dew Point: 47.3 °F /  8.5 °C 35.2 °F /  1.8 °C 40.2 °F /  4.6 °C
Humidity: 97 % 78 % 89 %
Wind Speed: 33.0 mph /  53.1 km/h - 14 mph /  22.5 km/h
Wind Gust: 46.0 mph /  74 km/h - -
Wind:- - WSW
Pressure: 29.69 in /  1005.3 hPa 28.84 in /  976.5 hPa -
Precipitation: 0.19 in /  4.83 mm    
Historical Graphs
 
 
Tabular Data for February 23, 2017
Time Temperature Dew Point Pressure Wind Wind Speed Wind Gust Humidity Rainfall Rate (Hourly) solar Conditions
00:00 44.4 °F /  6.9 °C 42.5 °F /  5.8 °C 29.51 in /  999.2 hPa SSW 1.0 mph /  1.6 km/h 1.0 mph /  1.6 km/h 93 % 0.05 in /  1.27 mm 0 W/m2
00:05 44.3 °F /  6.8 °C 42.7 °F /  5.9 °C 29.51 in /  999.2 hPa Calm   2.0 mph /  3.2 km/h 94 % 0.05 in /  1.27 mm 0 W/m2
00:15 44.2 °F /  6.8 °C 42.6 °F /  5.9 °C 29.50 in /  998.9 hPa SSW 1.0 mph /  1.6 km/h 1.0 mph /  1.6 km/h 94 % 0.07 in /  1.78 mm 0 W/m2
00:20 44.3 °F /  6.8 °C 42.7 °F /  5.9 °C 29.50 in /  998.9 hPa SSW 1.0 mph /  1.6 km/h 1.0 mph /  1.6 km/h 94 % 0.06 in /  1.52 mm 0 W/m2
00:25 44.3 °F /  6.8 °C 42.7 °F /  5.9 °C 29.49 in /  998.5 hPa SSW 1.0 mph /  1.6 km/h 2.0 mph /  3.2 km/h 94 % 0.06 in /  1.52 mm 0 W/m2
00:30 44.3 °F /  6.8 °C 43.0 °F /  6.1 °C 29.49 in /  998.5 hPa South 2.0 mph /  3.2 km/h 2.0 mph /  3.2 km/h 95 % 0.07 in /  1.78 mm 0 W/m2
00:35 44.3 °F /  6.8 °C 43.0 °F /  6.1 °C 29.48 in /  998.2 hPa South 3.0 mph /  4.8 km/h 3.0 mph /  4.8 km/h 95 % 0.06 in /  1.52 mm 0 W/m2
00:45 44.2 °F /  6.8 °C 42.9 °F /  6.1 °C 29.48 in /  998.2 hPa SSE 4.0 mph /  6.4 km/h 6.0 mph /  9.7 km/h 95 % 0.00 in /  0 mm 0 W/m2
00:50 44.2 °F /  6.8 °C 42.9 °F /  6.1 °C 29.47 in /  997.9 hPa SE 3.0 mph /  4.8 km/h 4.0 mph /  6.4 km/h 95 % 0.00 in /  0 mm 0 W/m2
00:55 44.1 °F /  6.7 °C 42.8 °F /  6 °C 29.47 in /  997.9 hPa SE 3.0 mph /  4.8 km/h 4.0 mph /  6.4 km/h 95 % 0.00 in /  0 mm 0 W/m2
01:05 44.1 °F /  6.7 °C 42.8 °F /  6 °C 29.46 in /  997.5 hPa SE 2.0 mph /  3.2 km/h 3.0 mph /  4.8 km/h 95 % 0.04 in /  1.02 mm 0 W/m2
01:10 44.1 °F /  6.7 °C 42.8 °F /  6 °C 29.45 in /  997.2 hPa SE 3.0 mph /  4.8 km/h 6.0 mph /  9.7 km/h 95 % 0.08 in /  2.03 mm 0 W/m2
01:20 44.0 °F /  6.7 °C 42.7 °F /  5.9 °C 29.44 in /  996.8 hPa SSE 4.0 mph /  6.4 km/h 6.0 mph /  9.7 km/h 95 % 0.13 in /  3.3 mm 0 W/m2
01:25 44.0 °F /  6.7 °C 42.9 °F /  6.1 °C 29.44 in /  996.8 hPa SE 4.0 mph /  6.4 km/h 6.0 mph /  9.7 km/h 96 % 0.11 in /  2.79 mm 0 W/m2
01:30 44.0 °F /  6.7 °C 42.9 °F /  6.1 °C 29.43 in /  996.5 hPa SE 4.0 mph /  6.4 km/h 5.0 mph /  8 km/h 96 % 0.07 in /  1.78 mm 0 W/m2
01:35 43.9 °F /  6.6 °C 42.8 °F /  6 °C 29.43 in /  996.5 hPa SE 4.0 mph /  6.4 km/h 7.0 mph /  11.3 km/h 96 % 0.06 in /  1.52 mm 0 W/m2
01:40 43.9 °F /  6.6 °C 42.8 °F /  6 °C 29.42 in /  996.2 hPa SSE 5.0 mph /  8 km/h 6.0 mph /  9.7 km/h 96 % 0.06 in /  1.52 mm 0 W/m2
01:45 44.0 °F /  6.7 °C 42.9 °F /  6.1 °C 29.41 in /  995.8 hPa ESE 5.0 mph /  8 km/h 6.0 mph /  9.7 km/h 96 % 0.05 in /  1.27 mm 0 W/m2
01:55 44.0 °F /  6.7 °C 42.9 °F /  6.1 °C 29.40 in /  995.5 hPa ESE 5.0 mph /  8 km/h 5.0 mph /  8 km/h 96 % 0.05 in /  1.27 mm 0 W/m2
02:00 44.1 °F /  6.7 °C 43.0 °F /  6.1 °C 29.39 in /  995.1 hPa SE 4.0 mph /  6.4 km/h 4.0 mph /  6.4 km/h 96 % 0.05 in /  1.27 mm 0 W/m2
02:05 44.1 °F /  6.7 °C 43.0 °F /  6.1 °C 29.38 in /  994.8 hPa SE 3.0 mph /  4.8 km/h 6.0 mph /  9.7 km/h 96 % 0.05 in /  1.27 mm 0 W/m2
02:15 44.3 °F /  6.8 °C 43.2 °F /  6.2 °C 29.37 in /  994.5 hPa East 3.0 mph /  4.8 km/h 4.0 mph /  6.4 km/h 96 % 0.00 in /  0 mm 0 W/m2
02:20 44.4 °F /  6.9 °C 43.3 °F /  6.3 °C 29.37 in /  994.5 hPa ESE 2.0 mph /  3.2 km/h 2.0 mph /  3.2 km/h 96 % 0.00 in /  0 mm 0 W/m2
02:30 44.5 °F /  6.9 °C 43.4 °F /  6.3 °C 29.37 in /  994.5 hPa ESE 2.0 mph /  3.2 km/h 4.0 mph /  6.4 km/h 96 % 0.00 in /  0 mm 0 W/m2
02:35 44.7 °F /  7.1 °C 43.9 °F /  6.6 °C 29.36 in /  994.1 hPa South 3.0 mph /  4.8 km/h 6.0 mph /  9.7 km/h 97 % 0.00 in /  0 mm 0 W/m2
02:40 44.8 °F /  7.1 °C 44.0 °F /  6.7 °C 29.36 in /  994.1 hPa SSW 3.0 mph /  4.8 km/h 3.0 mph /  4.8 km/h 97 % 0.00 in /  0 mm 0 W/m2
02:45 44.9 °F /  7.2 °C 44.1 °F /  6.7 °C 29.34 in /  993.5 hPa SSW 2.0 mph /  3.2 km/h 4.0 mph /  6.4 km/h 97 % 0.00 in /  0 mm 0 W/m2
02:50 45.0 °F /  7.2 °C 44.2 °F /  6.8 °C 29.34 in /  993.5 hPa SW 1.0 mph /  1.6 km/h 1.0 mph /  1.6 km/h 97 % 0.00 in /  0 mm 0 W/m2
03:00 45.2 °F /  7.3 °C 44.4 °F /  6.9 °C 29.33 in /  993.1 hPa SW 4.0 mph /  6.4 km/h 4.0 mph /  6.4 km/h 97 % 0.00 in /  0 mm 0 W/m2
03:10 45.5 °F /  7.5 °C 44.7 °F /  7.1 °C 29.32 in /  992.8 hPa SSW 5.0 mph /  8 km/h 6.0 mph /  9.7 km/h 97 % 0.00 in /  0 mm 0 W/m2
03:15 45.7 °F /  7.6 °C 44.9 °F /  7.2 °C 29.31 in /  992.4 hPa SSW 4.0 mph /  6.4 km/h 6.0 mph /  9.7 km/h 97 % 0.00 in /  0 mm 0 W/m2
03:20 45.8 °F /  7.7 °C 45.0 °F /  7.2 °C 29.30 in /  992.1 hPa SSW 3.0 mph /  4.8 km/h 3.0 mph /  4.8 km/h 97 % 0.00 in /  0 mm 0 W/m2
03:25 45.9 °F /  7.7 °C 45.1 °F /  7.3 °C 29.30 in /  992.1 hPa SSW 1.0 mph /  1.6 km/h 4.0 mph /  6.4 km/h 97 % 0.00 in /  0 mm 0 W/m2
03:35 46.1 °F /  7.8 °C 45.3 °F /  7.4 °C 29.29 in /  991.8 hPa SSW 2.0 mph /  3.2 km/h 4.0 mph /  6.4 km/h 97 % 0.00 in /  0 mm 0 W/m2
03:40 46.3 °F /  7.9 °C 45.5 °F /  7.5 °C 29.29 in /  991.8 hPa South 3.0 mph /  4.8 km/h 6.0 mph /  9.7 km/h 97 % 0.00 in /  0 mm 0 W/m2
03:45 46.6 °F /  8.1 °C 45.8 °F /  7.7 °C 29.28 in /  991.4 hPa South 3.0 mph /  4.8 km/h 6.0 mph /  9.7 km/h 97 % 0.00 in /  0 mm 0 W/m2
03:50 46.8 °F /  8.2 °C 46.0 °F /  7.8 °C 29.27 in /  991.1 hPa South 3.0 mph /  4.8 km/h 3.0 mph /  4.8 km/h 97 % 0.00 in /  0 mm 0 W/m2
03:55 47.1 °F /  8.4 °C 46.3 °F /  7.9 °C 29.26 in /  990.7 hPa SSW 3.0 mph /  4.8 km/h 4.0 mph /  6.4 km/h 97 % 0.00 in /  0 mm 0 W/m2
04:05 47.5 °F /  8.6 °C 46.7 °F /  8.2 °C 29.25 in /  990.4 hPa SSE 3.0 mph /  4.8 km/h 5.0 mph /  8 km/h 97 % 0.00 in /  0 mm 0 W/m2
04:15 47.9 °F /  8.8 °C 47.1 °F /  8.4 °C 29.25 in /  990.4 hPa SSE 5.0 mph /  8 km/h 8.0 mph /  12.9 km/h 97 % 0.00 in /  0 mm 0 W/m2
04:20 48.1 °F /  8.9 °C 47.0 °F /  8.3 °C 29.24 in /  990.1 hPa SW 6.0 mph /  9.7 km/h 10.0 mph /  16.1 km/h 96 % 0.00 in /  0 mm 0 W/m2
04:25 48.3 °F /  9.1 °C 47.2 °F /  8.4 °C 29.23 in /  989.7 hPa SW 7.0 mph /  11.3 km/h 10.0 mph /  16.1 km/h 96 % 0.00 in /  0 mm 0 W/m2
04:30 48.4 °F /  9.1 °C 47.3 °F /  8.5 °C 29.22 in /  989.4 hPa SSW 8.0 mph /  12.9 km/h 10.0 mph /  16.1 km/h 96 % 0.00 in /  0 mm 0 W/m2
04:35 48.5 °F /  9.2 °C 47.1 °F /  8.4 °C 29.22 in /  989.4 hPa SW 7.0 mph /  11.3 km/h 14.0 mph /  22.5 km/h 95 % 0.00 in /  0 mm 0 W/m2
04:45 48.7 °F /  9.3 °C 47.1 °F /  8.4 °C 29.20 in /  988.7 hPa SSW 8.0 mph /  12.9 km/h 11.0 mph /  17.7 km/h 94 % 0.00 in /  0 mm 0 W/m2
04:50 48.7 °F /  9.3 °C 47.1 °F /  8.4 °C 29.20 in /  988.7 hPa SW 7.0 mph /  11.3 km/h 15.0 mph /  24.1 km/h 94 % 0.00 in /  0 mm 0 W/m2
04:55 48.8 °F /  9.3 °C 46.9 °F /  8.3 °C 29.19 in /  988.4 hPa SSW 9.0 mph /  14.5 km/h 15.0 mph /  24.1 km/h 93 % 0.00 in /  0 mm 0 W/m2
05:00 48.9 °F /  9.4 °C 47.0 °F /  8.3 °C 29.19 in /  988.4 hPa SSW 10.0 mph /  16.1 km/h 11.0 mph /  17.7 km/h 93 % 0.00 in /  0 mm 0 W/m2
05:05 49.0 °F /  9.4 °C 46.8 °F /  8.2 °C 29.18 in /  988 hPa SSW 10.0 mph /  16.1 km/h 11.0 mph /  17.7 km/h 92 % 0.00 in /  0 mm 0 W/m2
05:15 49.0 °F /  9.4 °C 46.8 °F /  8.2 °C 29.16 in /  987.4 hPa SW 11.0 mph /  17.7 km/h 11.0 mph /  17.7 km/h 92 % 0.00 in /  0 mm 0 W/m2
05:20 49.0 °F /  9.4 °C 46.8 °F /  8.2 °C 29.16 in /  987.4 hPa SW 11.0 mph /  17.7 km/h 11.0 mph /  17.7 km/h 92 % 0.00 in /  0 mm 0 W/m2
05:30 48.9 °F /  9.4 °C 46.7 °F /  8.2 °C 29.15 in /  987 hPa WSW 10.0 mph /  16.1 km/h 10.0 mph /  16.1 km/h 92 % 0.00 in /  0 mm 0 W/m2
05:35 48.9 °F /  9.4 °C 46.4 °F /  8 °C 29.14 in /  986.7 hPa SW 12.0 mph /  19.3 km/h 12.0 mph /  19.3 km/h 91 % 0.00 in /  0 mm 0 W/m2
05:40 49.0 °F /  9.4 °C 46.5 °F /  8.1 °C 29.13 in /  986.3 hPa SSW 13.0 mph /  20.9 km/h 13.0 mph /  20.9 km/h 91 % 0.00 in /  0 mm 0 W/m2
05:50 49.0 °F /  9.4 °C 46.2 °F /  7.9 °C 29.12 in /  986 hPa SW 12.0 mph /  19.3 km/h 12.0 mph /  19.3 km/h 90 % 0.00 in /  0 mm 0 W/m2
05:55 49.0 °F /  9.4 °C 46.2 °F /  7.9 °C 29.11 in /  985.7 hPa SSW 12.0 mph /  19.3 km/h 12.0 mph /  19.3 km/h 90 % 0.00 in /  0 mm 0 W/m2
06:00 48.9 °F /  9.4 °C 46.1 °F /  7.8 °C 29.10 in /  985.3 hPa SSW 12.0 mph /  19.3 km/h 12.0 mph /  19.3 km/h 90 % 0.00 in /  0 mm 0 W/m2
06:05 48.9 °F /  9.4 °C 46.1 °F /  7.8 °C 29.09 in /  985 hPa SW 14.0 mph /  22.5 km/h 14.0 mph /  22.5 km/h 90 % 0.00 in /  0 mm 0 W/m2
06:10 48.9 °F /  9.4 °C 46.1 °F /  7.8 °C 29.09 in /  985 hPa SSW 16.0 mph /  25.7 km/h 16.0 mph /  25.7 km/h 90 % 0.00 in /  0 mm 0 W/m2
06:15 48.9 °F /  9.4 °C 46.1 °F /  7.8 °C 29.08 in /  984.6 hPa SW 16.0 mph /  25.7 km/h 16.0 mph /  25.7 km/h 90 % 0.00 in /  0 mm 0 W/m2
06:25 48.8 °F /  9.3 °C 46.0 °F /  7.8 °C 29.06 in /  984 hPa SSW 16.0 mph /  25.7 km/h 18.0 mph /  29 km/h 90 % 0.00 in /  0 mm 0 W/m2
06:30 48.6 °F /  9.2 °C 46.1 °F /  7.8 °C 29.05 in /  983.6 hPa SW 15.0 mph /  24.1 km/h 23.0 mph /  37 km/h 91 % 0.00 in /  0 mm 0 W/m2
06:35 48.5 °F /  9.2 °C 46.0 °F /  7.8 °C 29.05 in /  983.6 hPa South 15.0 mph /  24.1 km/h 23.0 mph /  37 km/h 91 % 0.00 in /  0 mm 0 W/m2
06:45 48.3 °F /  9.1 °C 46.1 °F /  7.8 °C 29.04 in /  983.3 hPa SW 15.0 mph /  24.1 km/h 19.0 mph /  30.6 km/h 92 % 0.00 in /  0 mm 0 W/m2
06:50 48.2 °F /  9 °C 46.0 °F /  7.8 °C 29.03 in /  983 hPa SSW 14.0 mph /  22.5 km/h 14.0 mph /  22.5 km/h 92 % 0.13 in /  3.3 mm 0 W/m2
07:00 48.0 °F /  8.9 °C 46.1 °F /  7.8 °C 29.03 in /  983 hPa SSW 14.0 mph /  22.5 km/h 14.0 mph /  22.5 km/h 93 % 0.09 in /  2.29 mm 0 W/m2
07:05 48.0 °F /  8.9 °C 45.8 °F /  7.7 °C 29.02 in /  982.6 hPa SW 17.0 mph /  27.4 km/h 17.0 mph /  27.4 km/h 92 % 0.10 in /  2.54 mm 0 W/m2
07:10 48.0 °F /  8.9 °C 45.5 °F /  7.5 °C 29.01 in /  982.3 hPa SW 18.0 mph /  29 km/h 18.0 mph /  29 km/h 91 % 0.08 in /  2.03 mm 0 W/m2
07:15 48.2 °F /  9 °C 45.1 °F /  7.3 °C 29.01 in /  982.3 hPa WSW 19.0 mph /  30.6 km/h 19.0 mph /  30.6 km/h 89 % 0.05 in /  1.27 mm 0 W/m2
07:20 48.0 °F /  8.9 °C 44.6 °F /  7 °C 29.01 in /  982.3 hPa SW 18.0 mph /  29 km/h 20.0 mph /  32.2 km/h 88 % 0.00 in /  0 mm 5 W/m2
07:30 47.7 °F /  8.7 °C 43.7 °F /  6.5 °C 28.99 in /  981.6 hPa SW 15.0 mph /  24.1 km/h 15.0 mph /  24.1 km/h 86 % 0.00 in /  0 mm 9 W/m2
07:35 47.7 °F /  8.7 °C 43.4 °F /  6.3 °C 28.99 in /  981.6 hPa West 17.0 mph /  27.4 km/h 17.0 mph /  27.4 km/h 85 % 0.00 in /  0 mm 9 W/m2
07:40 47.6 °F /  8.7 °C 43.0 °F /  6.1 °C 28.98 in /  981.3 hPa WSW 19.0 mph /  30.6 km/h 23.0 mph /  37 km/h 84 % 0.00 in /  0 mm 11 W/m2
07:45 47.7 °F /  8.7 °C 42.5 °F /  5.8 °C 28.98 in /  981.3 hPa SW 19.0 mph /  30.6 km/h 23.0 mph /  37 km/h 82 % 0.00 in /  0 mm 9 W/m2
07:55 47.3 °F /  8.5 °C 40.8 °F /  4.9 °C 28.98 in /  981.3 hPa WSW 24.0 mph /  38.6 km/h 24.0 mph /  38.6 km/h 78 % 0.00 in /  0 mm 14 W/m2
08:05 46.7 °F /  8.2 °C 40.2 °F /  4.6 °C 28.97 in /  980.9 hPa West 23.0 mph /  37 km/h 31.0 mph /  49.9 km/h 78 % 0.00 in /  0 mm 19 W/m2
08:10 46.4 °F /  8 °C 40.2 °F /  4.6 °C 28.97 in /  980.9 hPa WSW 22.0 mph /  35.4 km/h 22.0 mph /  35.4 km/h 79 % 0.00 in /  0 mm 47 W/m2
08:15 46.3 °F /  7.9 °C 41.1 °F /  5.1 °C 28.97 in /  980.9 hPa WSW 21.0 mph /  33.8 km/h 22.0 mph /  35.4 km/h 82 % 0.00 in /  0 mm 176 W/m2
08:20 46.1 °F /  7.8 °C 41.2 °F /  5.1 °C 28.97 in /  980.9 hPa WSW 21.0 mph /  33.8 km/h 21.0 mph /  33.8 km/h 83 % 0.00 in /  0 mm 60 W/m2
08:25 45.7 °F /  7.6 °C 41.4 °F /  5.2 °C 28.97 in /  980.9 hPa West 19.0 mph /  30.6 km/h 28.0 mph /  45.1 km/h 85 % 0.00 in /  0 mm 53 W/m2
08:30 45.3 °F /  7.4 °C 41.4 °F /  5.2 °C 28.96 in /  980.6 hPa WSW 15.0 mph /  24.1 km/h 24.0 mph /  38.6 km/h 86 % 0.00 in /  0 mm 67 W/m2
08:40 44.9 °F /  7.2 °C 41.0 °F /  5 °C 28.96 in /  980.6 hPa WSW 17.0 mph /  27.4 km/h 29.0 mph /  46.7 km/h 86 % 0.00 in /  0 mm 74 W/m2
08:45 44.8 °F /  7.1 °C 40.9 °F /  4.9 °C 28.95 in /  980.2 hPa WSW 17.0 mph /  27.4 km/h 29.0 mph /  46.7 km/h 86 % 0.00 in /  0 mm 79 W/m2
08:50 44.6 °F /  7 °C 41.0 °F /  5 °C 28.95 in /  980.2 hPa SSW 16.0 mph /  25.7 km/h 23.0 mph /  37 km/h 87 % 0.00 in /  0 mm 76 W/m2
08:55 44.4 °F /  6.9 °C 40.8 °F /  4.9 °C 28.94 in /  979.9 hPa WSW 16.0 mph /  25.7 km/h 23.0 mph /  37 km/h 87 % 0.00 in /  0 mm 62 W/m2
09:00 44.3 °F /  6.8 °C 40.4 °F /  4.7 °C 28.93 in /  979.6 hPa SW 18.0 mph /  29 km/h 21.0 mph /  33.8 km/h 86 % 0.00 in /  0 mm 51 W/m2
09:10 43.9 °F /  6.6 °C 40.3 °F /  4.6 °C 28.92 in /  979.2 hPa WSW 18.0 mph /  29 km/h 18.0 mph /  29 km/h 87 % 0.00 in /  0 mm 93 W/m2
09:15 43.8 °F /  6.6 °C 40.5 °F /  4.7 °C 28.91 in /  978.9 hPa SW 17.0 mph /  27.4 km/h 18.0 mph /  29 km/h 88 % 0.00 in /  0 mm 128 W/m2
09:25 43.7 °F /  6.5 °C 40.7 °F /  4.8 °C 28.90 in /  978.6 hPa SW 12.0 mph /  19.3 km/h 14.0 mph /  22.5 km/h 89 % 0.00 in /  0 mm 79 W/m2
09:30 43.6 °F /  6.4 °C 40.6 °F /  4.8 °C 28.89 in /  978.2 hPa SW 13.0 mph /  20.9 km/h 13.0 mph /  20.9 km/h 89 % 0.00 in /  0 mm 46 W/m2
09:35 43.5 °F /  6.4 °C 40.5 °F /  4.7 °C 28.89 in /  978.2 hPa SW 14.0 mph /  22.5 km/h 14.0 mph /  22.5 km/h 89 % 0.00 in /  0 mm 49 W/m2
09:45 43.1 °F /  6.2 °C 39.8 °F /  4.3 °C 28.89 in /  978.2 hPa SW 21.0 mph /  33.8 km/h 30.0 mph /  48.3 km/h 88 % 0.06 in /  1.52 mm 26 W/m2
09:50 42.7 °F /  5.9 °C 39.4 °F /  4.1 °C 28.89 in /  978.2 hPa WSW 24.0 mph /  38.6 km/h 24.0 mph /  38.6 km/h 88 % 0.06 in /  1.52 mm 158 W/m2
09:55 42.3 °F /  5.7 °C 39.0 °F /  3.9 °C 28.88 in /  977.9 hPa WSW 25.0 mph /  40.2 km/h 25.0 mph /  40.2 km/h 88 % 0.05 in /  1.27 mm 114 W/m2
10:00 42.0 °F /  5.6 °C 39.0 °F /  3.9 °C 28.88 in /  977.9 hPa WSW 23.0 mph /  37 km/h 23.0 mph /  37 km/h 89 % 0.00 in /  0 mm 171 W/m2
10:05 41.9 °F /  5.5 °C 38.9 °F /  3.8 °C 28.87 in /  977.5 hPa SW 19.0 mph /  30.6 km/h 23.0 mph /  37 km/h 89 % 0.00 in /  0 mm 185 W/m2
10:10 41.9 °F /  5.5 °C 39.2 °F /  4 °C 28.87 in /  977.5 hPa WSW 16.0 mph /  25.7 km/h 16.0 mph /  25.7 km/h 90 % 0.00 in /  0 mm 199 W/m2
10:20 41.6 °F /  5.3 °C 38.9 °F /  3.8 °C 28.86 in /  977.2 hPa West 22.0 mph /  35.4 km/h 22.0 mph /  35.4 km/h 90 % 0.04 in /  1.02 mm 320 W/m2
10:25 41.7 °F /  5.4 °C 39.0 °F /  3.9 °C 28.85 in /  976.9 hPa WNW 21.0 mph /  33.8 km/h 22.0 mph /  35.4 km/h 90 % 0.04 in /  1.02 mm 269 W/m2
10:30 41.7 °F /  5.4 °C 39.3 °F /  4.1 °C 28.85 in /  976.9 hPa WSW 20.0 mph /  32.2 km/h 20.0 mph /  32.2 km/h 91 % 0.04 in /  1.02 mm 272 W/m2
10:35 41.7 °F /  5.4 °C 39.3 °F /  4.1 °C 28.84 in /  976.5 hPa WSW 22.0 mph /  35.4 km/h 30.0 mph /  48.3 km/h 91 % 0.00 in /  0 mm 325 W/m2
10:45 42.3 °F /  5.7 °C 39.9 °F /  4.4 °C 28.85 in /  976.9 hPa West 22.0 mph /  35.4 km/h 29.0 mph /  46.7 km/h 91 % 0.00 in /  0 mm 251 W/m2
10:50 42.5 °F /  5.8 °C 40.1 °F /  4.5 °C 28.84 in /  976.5 hPa SW 23.0 mph /  37 km/h 24.0 mph /  38.6 km/h 91 % 0.00 in /  0 mm 526 W/m2
11:00 43.2 °F /  6.2 °C 40.8 °F /  4.9 °C 28.85 in /  976.9 hPa West 25.0 mph /  40.2 km/h 26.0 mph /  41.8 km/h 91 % 0.00 in /  0 mm 487 W/m2
11:05 43.4 °F /  6.3 °C 40.9 °F /  4.9 °C 28.85 in /  976.9 hPa WNW 25.0 mph /  40.2 km/h 26.0 mph /  41.8 km/h 91 % 0.00 in /  0 mm 209 W/m2
11:10 43.4 °F /  6.3 °C 40.7 °F /  4.8 °C 28.85 in /  976.9 hPa West 24.0 mph /  38.6 km/h 24.0 mph /  38.6 km/h 90 % 0.00 in /  0 mm 163 W/m2
11:15 43.4 °F /  6.3 °C 40.9 °F /  4.9 °C 28.85 in /  976.9 hPa West 22.0 mph /  35.4 km/h 24.0 mph /  38.6 km/h 91 % 0.00 in /  0 mm 128 W/m2
11:25 43.6 °F /  6.4 °C 41.1 °F /  5.1 °C 28.86 in /  977.2 hPa West 21.0 mph /  33.8 km/h 23.0 mph /  37 km/h 91 % 0.00 in /  0 mm 105 W/m2
11:30 43.8 °F /  6.6 °C 41.6 °F /  5.3 °C 28.87 in /  977.5 hPa West 20.0 mph /  32.2 km/h 20.0 mph /  32.2 km/h 92 % 0.00 in /  0 mm 250 W/m2
11:35 44.4 °F /  6.9 °C 41.9 °F /  5.5 °C 28.88 in /  977.9 hPa West 21.0 mph /  33.8 km/h 24.0 mph /  38.6 km/h 91 % 0.00 in /  0 mm 309 W/m2
11:40 45.0 °F /  7.2 °C 42.2 °F /  5.7 °C 28.88 in /  977.9 hPa West 24.0 mph /  38.6 km/h 24.0 mph /  38.6 km/h 90 % 0.00 in /  0 mm 371 W/m2
11:45 45.4 °F /  7.4 °C 42.1 °F /  5.6 °C 28.89 in /  978.2 hPa West 23.0 mph /  37 km/h 31.0 mph /  49.9 km/h 88 % 0.00 in /  0 mm 274 W/m2
11:50 45.8 °F /  7.7 °C 42.2 °F /  5.7 °C 28.90 in /  978.6 hPa WNW 27.0 mph /  43.5 km/h 30.0 mph /  48.3 km/h 87 % 0.00 in /  0 mm 366 W/m2
12:00 46.9 °F /  8.3 °C 42.9 °F /  6.1 °C 28.92 in /  979.2 hPa NW 25.0 mph /  40.2 km/h 25.0 mph /  40.2 km/h 86 % 0.00 in /  0 mm 652 W/m2
12:05 47.3 °F /  8.5 °C 43.0 °F /  6.1 °C 28.92 in /  979.2 hPa WNW 25.0 mph /  40.2 km/h 25.0 mph /  40.2 km/h 85 % 0.00 in /  0 mm 605 W/m2
12:10 47.3 °F /  8.5 °C 42.4 °F /  5.8 °C 28.93 in /  979.6 hPa WNW 24.0 mph /  38.6 km/h 24.0 mph /  38.6 km/h 83 % 0.00 in /  0 mm 169 W/m2
12:15 47.0 °F /  8.3 °C 42.4 °F /  5.8 °C 28.94 in /  979.9 hPa West 23.0 mph /  37 km/h 30.0 mph /  48.3 km/h 84 % 0.00 in /  0 mm 137 W/m2
12:20 46.4 °F /  8 °C 42.1 °F /  5.6 °C 28.95 in /  980.2 hPa WNW 24.0 mph /  38.6 km/h 26.0 mph /  41.8 km/h 85 % 0.00 in /  0 mm 172 W/m2
12:30 44.2 °F /  6.8 °C 40.0 °F /  4.4 °C 28.97 in /  980.9 hPa WNW 29.0 mph /  46.7 km/h 29.0 mph /  46.7 km/h 85 % 0.00 in /  0 mm 121 W/m2
12:35 43.4 °F /  6.3 °C 39.5 °F /  4.2 °C 28.98 in /  981.3 hPa NW 29.0 mph /  46.7 km/h 29.0 mph /  46.7 km/h 86 % 0.00 in /  0 mm 148 W/m2
12:45 42.8 °F /  6 °C 38.9 °F /  3.8 °C 28.98 in /  981.3 hPa WNW 31.0 mph /  49.9 km/h 36.0 mph /  57.9 km/h 86 % 0.00 in /  0 mm 209 W/m2
12:50 42.9 °F /  6.1 °C 39.0 °F /  3.9 °C 28.99 in /  981.6 hPa NW 29.0 mph /  46.7 km/h 29.0 mph /  46.7 km/h 86 % 0.00 in /  0 mm 158 W/m2
12:55 42.8 °F /  6 °C 38.9 °F /  3.8 °C 29.00 in /  981.9 hPa WNW 27.0 mph /  43.5 km/h 29.0 mph /  46.7 km/h 86 % 0.00 in /  0 mm 373 W/m2
13:05 43.5 °F /  6.4 °C 38.7 °F /  3.7 °C 29.00 in /  981.9 hPa West 28.0 mph /  45.1 km/h 28.0 mph /  45.1 km/h 83 % 0.00 in /  0 mm 213 W/m2
13:10 43.5 °F /  6.4 °C 38.7 °F /  3.7 °C 29.01 in /  982.3 hPa NW 28.0 mph /  45.1 km/h 28.0 mph /  45.1 km/h 83 % 0.00 in /  0 mm 155 W/m2
13:15 43.3 °F /  6.3 °C 38.2 °F /  3.4 °C 29.01 in /  982.3 hPa WNW 26.0 mph /  41.8 km/h 28.0 mph /  45.1 km/h 82 % 0.00 in /  0 mm 137 W/m2
13:20 43.0 °F /  6.1 °C 37.9 °F /  3.3 °C 29.01 in /  982.3 hPa West 26.0 mph /  41.8 km/h 26.0 mph /  41.8 km/h 82 % 0.00 in /  0 mm 120 W/m2
13:25 42.8 °F /  6 °C 37.7 °F /  3.2 °C 29.02 in /  982.6 hPa WSW 28.0 mph /  45.1 km/h 28.0 mph /  45.1 km/h 82 % 0.00 in /  0 mm 118 W/m2
13:30 42.5 °F /  5.8 °C 37.4 °F /  3 °C 29.02 in /  982.6 hPa West 30.0 mph /  48.3 km/h 33.0 mph /  53.1 km/h 82 % 0.00 in /  0 mm 113 W/m2
13:40 42.3 °F /  5.7 °C 37.5 °F /  3.1 °C 29.03 in /  983 hPa NW 28.0 mph /  45.1 km/h 32.0 mph /  51.5 km/h 83 % 0.00 in /  0 mm 206 W/m2
13:45 42.5 °F /  5.8 °C 37.7 °F /  3.2 °C 29.03 in /  983 hPa WNW 27.0 mph /  43.5 km/h 32.0 mph /  51.5 km/h 83 % 0.00 in /  0 mm 371 W/m2
13:50 42.6 °F /  5.9 °C 37.5 °F /  3.1 °C 29.03 in /  983 hPa WNW 30.0 mph /  48.3 km/h 39.0 mph /  62.8 km/h 82 % 0.00 in /  0 mm 179 W/m2
13:55 42.5 °F /  5.8 °C 37.7 °F /  3.2 °C 29.04 in /  983.3 hPa NW 33.0 mph /  53.1 km/h 39.0 mph /  62.8 km/h 83 % 0.00 in /  0 mm 292 W/m2
14:00 42.7 °F /  5.9 °C 37.9 °F /  3.3 °C 29.05 in /  983.6 hPa WNW 33.0 mph /  53.1 km/h 38.0 mph /  61.2 km/h 83 % 0.00 in /  0 mm 223 W/m2
14:10 42.6 °F /  5.9 °C 37.8 °F /  3.2 °C 29.07 in /  984.3 hPa WNW 28.0 mph /  45.1 km/h 28.0 mph /  45.1 km/h 83 % 0.00 in /  0 mm 230 W/m2
14:15 42.8 °F /  6 °C 38.0 °F /  3.3 °C 29.08 in /  984.6 hPa NW 27.0 mph /  43.5 km/h 28.0 mph /  45.1 km/h 83 % 0.00 in /  0 mm 264 W/m2
14:25 43.3 °F /  6.3 °C 38.5 °F /  3.6 °C 29.10 in /  985.3 hPa WNW 26.0 mph /  41.8 km/h 27.0 mph /  43.5 km/h 83 % 0.00 in /  0 mm 146 W/m2
14:30 43.0 °F /  6.1 °C 38.5 °F /  3.6 °C 29.11 in /  985.7 hPa WNW 24.0 mph /  38.6 km/h 28.0 mph /  45.1 km/h 84 % 0.00 in /  0 mm 104 W/m2
14:35 42.5 °F /  5.8 °C 38.6 °F /  3.7 °C 29.13 in /  986.3 hPa WNW 23.0 mph /  37 km/h 28.0 mph /  45.1 km/h 86 % 0.00 in /  0 mm 120 W/m2
14:45 42.0 °F /  5.6 °C 38.7 °F /  3.7 °C 29.15 in /  987 hPa NNW 22.0 mph /  35.4 km/h 22.0 mph /  35.4 km/h 88 % 0.00 in /  0 mm 160 W/m2
14:50 42.0 °F /  5.6 °C 38.7 °F /  3.7 °C 29.15 in /  987 hPa WNW 20.0 mph /  32.2 km/h 22.0 mph /  35.4 km/h 88 % 0.00 in /  0 mm 225 W/m2
14:55 42.1 °F /  5.6 °C 38.8 °F /  3.8 °C 29.16 in /  987.4 hPa NW 21.0 mph /  33.8 km/h 21.0 mph /  33.8 km/h 88 % 0.00 in /  0 mm 190 W/m2
15:05 42.3 °F /  5.7 °C 38.7 °F /  3.7 °C 29.17 in /  987.7 hPa WNW 22.0 mph /  35.4 km/h 22.0 mph /  35.4 km/h 87 % 0.00 in /  0 mm 165 W/m2
15:15 42.2 °F /  5.7 °C 38.3 °F /  3.5 °C 29.20 in /  988.7 hPa WNW 21.0 mph /  33.8 km/h 26.0 mph /  41.8 km/h 86 % 0.00 in /  0 mm 156 W/m2
15:20 42.3 °F /  5.7 °C 38.4 °F /  3.6 °C 29.21 in /  989.1 hPa NW 21.0 mph /  33.8 km/h 21.0 mph /  33.8 km/h 86 % 0.00 in /  0 mm 155 W/m2
15:25 42.4 °F /  5.8 °C 38.5 °F /  3.6 °C 29.22 in /  989.4 hPa WNW 21.0 mph /  33.8 km/h 21.0 mph /  33.8 km/h 86 % 0.00 in /  0 mm 206 W/m2
15:30 42.6 °F /  5.9 °C 38.7 °F /  3.7 °C 29.23 in /  989.7 hPa WNW 20.0 mph /  32.2 km/h 26.0 mph /  41.8 km/h 86 % 0.00 in /  0 mm 195 W/m2
15:40 42.7 °F /  5.9 °C 38.2 °F /  3.4 °C 29.26 in /  990.7 hPa West 22.0 mph /  35.4 km/h 46.0 mph /  74 km/h 84 % 0.00 in /  0 mm 162 W/m2
15:45 42.7 °F /  5.9 °C 37.9 °F /  3.3 °C 29.27 in /  991.1 hPa NNW 22.0 mph /  35.4 km/h 46.0 mph /  74 km/h 83 % 0.00 in /  0 mm 93 W/m2
15:50 42.6 °F /  5.9 °C 37.5 °F /  3.1 °C 29.27 in /  991.1 hPa NNW 21.0 mph /  33.8 km/h 46.0 mph /  74 km/h 82 % 0.00 in /  0 mm 62 W/m2
15:55 42.5 °F /  5.8 °C 37.4 °F /  3 °C 29.28 in /  991.4 hPa NNW 19.0 mph /  30.6 km/h 46.0 mph /  74 km/h 82 % 0.00 in /  0 mm 121 W/m2
16:00 42.5 °F /  5.8 °C 37.4 °F /  3 °C 29.29 in /  991.8 hPa NW 19.0 mph /  30.6 km/h 19.0 mph /  30.6 km/h 82 % 0.00 in /  0 mm 88 W/m2
16:10 42.4 °F /  5.8 °C 37.0 °F /  2.8 °C 29.31 in /  992.4 hPa WNW 20.0 mph /  32.2 km/h 46.0 mph /  74 km/h 81 % 0.00 in /  0 mm 60 W/m2
16:15 42.3 °F /  5.7 °C 37.2 °F /  2.9 °C 29.32 in /  992.8 hPa NNW 19.0 mph /  30.6 km/h 46.0 mph /  74 km/h 82 % 0.00 in /  0 mm 58 W/m2
16:20 42.2 °F /  5.7 °C 37.1 °F /  2.8 °C 29.33 in /  993.1 hPa WNW 18.0 mph /  29 km/h 46.0 mph /  74 km/h 82 % 0.00 in /  0 mm 62 W/m2
16:25 42.1 °F /  5.6 °C 37.0 °F /  2.8 °C 29.33 in /  993.1 hPa NW 18.0 mph /  29 km/h 46.0 mph /  74 km/h 82 % 0.00 in /  0 mm 60 W/m2
16:35 42.2 °F /  5.7 °C 36.8 °F /  2.7 °C 29.36 in /  994.1 hPa NW 19.0 mph /  30.6 km/h 46.0 mph /  74 km/h 81 % 0.00 in /  0 mm 35 W/m2
16:45 42.2 °F /  5.7 °C 36.8 °F /  2.7 °C 29.37 in /  994.5 hPa WNW 17.0 mph /  27.4 km/h 46.0 mph /  74 km/h 81 % 0.00 in /  0 mm 28 W/m2
16:50 42.1 °F /  5.6 °C 36.7 °F /  2.6 °C 29.38 in /  994.8 hPa NW 19.0 mph /  30.6 km/h 19.0 mph /  30.6 km/h 81 % 0.00 in /  0 mm 19 W/m2
16:55 42.0 °F /  5.6 °C 36.6 °F /  2.6 °C 29.39 in /  995.1 hPa WNW 18.0 mph /  29 km/h 46.0 mph /  74 km/h 81 % 0.00 in /  0 mm 18 W/m2
17:00 42.0 °F /  5.6 °C 36.6 °F /  2.6 °C 29.39 in /  995.1 hPa WNW 18.0 mph /  29 km/h 46.0 mph /  74 km/h 81 % 0.00 in /  0 mm 14 W/m2
17:05 42.0 °F /  5.6 °C 36.6 °F /  2.6 °C 29.40 in /  995.5 hPa NW 17.0 mph /  27.4 km/h 46.0 mph /  74 km/h 81 % 0.00 in /  0 mm 11 W/m2
17:10 41.9 °F /  5.5 °C 36.5 °F /  2.5 °C 29.40 in /  995.5 hPa NW 19.0 mph /  30.6 km/h 19.0 mph /  30.6 km/h 81 % 0.00 in /  0 mm 9 W/m2
17:20 41.7 °F /  5.4 °C 36.6 °F /  2.6 °C 29.42 in /  996.2 hPa WNW 15.0 mph /  24.1 km/h 15.0 mph /  24.1 km/h 82 % 0.00 in /  0 mm 5 W/m2
17:25 41.6 °F /  5.3 °C 36.8 °F /  2.7 °C 29.43 in /  996.5 hPa WNW 15.0 mph /  24.1 km/h 46.0 mph /  74 km/h 83 % 0.00 in /  0 mm 5 W/m2
17:30 41.6 °F /  5.3 °C 36.8 °F /  2.7 °C 29.43 in /  996.5 hPa NW 15.0 mph /  24.1 km/h 15.0 mph /  24.1 km/h 83 % 0.00 in /  0 mm 0 W/m2
17:35 41.5 °F /  5.3 °C 37.0 °F /  2.8 °C 29.44 in /  996.8 hPa WNW 15.0 mph /  24.1 km/h 46.0 mph /  74 km/h 84 % 0.00 in /  0 mm 0 W/m2
17:40 41.4 °F /  5.2 °C 36.9 °F /  2.7 °C 29.44 in /  996.8 hPa WNW 15.0 mph /  24.1 km/h 46.0 mph /  74 km/h 84 % 0.00 in /  0 mm 0 W/m2
17:50 41.0 °F /  5 °C 36.8 °F /  2.7 °C 29.46 in /  997.5 hPa WNW 15.0 mph /  24.1 km/h 15.0 mph /  24.1 km/h 85 % 0.00 in /  0 mm 0 W/m2
17:55 40.9 °F /  4.9 °C 37.0 °F /  2.8 °C 29.46 in /  997.5 hPa West 14.0 mph /  22.5 km/h 46.0 mph /  74 km/h 86 % 0.00 in /  0 mm 0 W/m2
18:05 40.8 °F /  4.9 °C 37.2 °F /  2.9 °C 29.48 in /  998.2 hPa WNW 14.0 mph /  22.5 km/h 46.0 mph /  74 km/h 87 % 0.00 in /  0 mm 0 W/m2
18:10 40.7 °F /  4.8 °C 37.1 °F /  2.8 °C 29.48 in /  998.2 hPa WNW 12.0 mph /  19.3 km/h 12.0 mph /  19.3 km/h 87 % 0.00 in /  0 mm 0 W/m2
18:15 40.6 °F /  4.8 °C 37.0 °F /  2.8 °C 29.49 in /  998.5 hPa WNW 12.0 mph /  19.3 km/h 19.0 mph /  30.6 km/h 87 % 0.00 in /  0 mm 0 W/m2
18:25 40.3 °F /  4.6 °C 36.7 °F /  2.6 °C 29.49 in /  998.5 hPa WNW 13.0 mph /  20.9 km/h 46.0 mph /  74 km/h 87 % 0.00 in /  0 mm 0 W/m2
18:30 40.2 °F /  4.6 °C 36.6 °F /  2.6 °C 29.50 in /  998.9 hPa WNW 11.0 mph /  17.7 km/h 46.0 mph /  74 km/h 87 % 0.00 in /  0 mm 0 W/m2
18:35 40.0 °F /  4.4 °C 36.4 °F /  2.4 °C 29.50 in /  998.9 hPa West 11.0 mph /  17.7 km/h 46.0 mph /  74 km/h 87 % 0.00 in /  0 mm 0 W/m2
18:40 39.9 °F /  4.4 °C 36.3 °F /  2.4 °C 29.51 in /  999.2 hPa NW 10.0 mph /  16.1 km/h 10.0 mph /  16.1 km/h 87 % 0.00 in /  0 mm 0 W/m2
18:45 39.8 °F /  4.3 °C 36.2 °F /  2.3 °C 29.51 in /  999.2 hPa NW 11.0 mph /  17.7 km/h 11.0 mph /  17.7 km/h 87 % 0.00 in /  0 mm 0 W/m2
18:50 39.8 °F /  4.3 °C 36.2 °F /  2.3 °C 29.51 in /  999.2 hPa WNW 11.0 mph /  17.7 km/h 11.0 mph /  17.7 km/h 87 % 0.00 in /  0 mm 0 W/m2
19:00 39.6 °F /  4.2 °C 36.0 °F /  2.2 °C 29.52 in /  999.5 hPa WNW 9.0 mph /  14.5 km/h 9.0 mph /  14.5 km/h 87 % 0.00 in /  0 mm 0 W/m2
19:05 39.5 °F /  4.2 °C 36.0 °F /  2.2 °C 29.52 in /  999.5 hPa WNW 9.0 mph /  14.5 km/h 13.0 mph /  20.9 km/h 87 % 0.00 in /  0 mm 0 W/m2
19:10 39.4 °F /  4.1 °C 36.1 °F /  2.3 °C 29.53 in /  999.9 hPa WNW 8.0 mph /  12.9 km/h 46.0 mph /  74 km/h 88 % 0.00 in /  0 mm 0 W/m2
19:15 39.3 °F /  4.1 °C 36.0 °F /  2.2 °C 29.53 in /  999.9 hPa NW 9.0 mph /  14.5 km/h 46.0 mph /  74 km/h 88 % 0.00 in /  0 mm 0 W/m2
19:25 39.2 °F /  4 °C 35.9 °F /  2.2 °C 29.54 in /  1000.2 hPa NW 10.0 mph /  16.1 km/h 46.0 mph /  74 km/h 88 % 0.00 in /  0 mm 0 W/m2
19:30 39.1 °F /  3.9 °C 35.8 °F /  2.1 °C 29.54 in /  1000.2 hPa WNW 9.0 mph /  14.5 km/h 46.0 mph /  74 km/h 88 % 0.00 in /  0 mm 0 W/m2
19:40 39.1 °F /  3.9 °C 35.8 °F /  2.1 °C 29.55 in /  1000.6 hPa WNW 10.0 mph /  16.1 km/h 46.0 mph /  74 km/h 88 % 0.00 in /  0 mm 0 W/m2
19:45 39.2 °F /  4 °C 35.9 °F /  2.2 °C 29.56 in /  1000.9 hPa NW 10.0 mph /  16.1 km/h 46.0 mph /  74 km/h 88 % 0.00 in /  0 mm 0 W/m2
19:50 39.2 °F /  4 °C 35.9 °F /  2.2 °C 29.57 in /  1001.2 hPa WNW 9.0 mph /  14.5 km/h 9.0 mph /  14.5 km/h 88 % 0.00 in /  0 mm 0 W/m2
19:55 39.4 °F /  4.1 °C 36.1 °F /  2.3 °C 29.57 in /  1001.2 hPa West 8.0 mph /  12.9 km/h 46.0 mph /  74 km/h 88 % 0.00 in /  0 mm 0 W/m2
20:05 39.6 °F /  4.2 °C 36.3 °F /  2.4 °C 29.57 in /  1001.2 hPa WNW 9.0 mph /  14.5 km/h 46.0 mph /  74 km/h 88 % 0.00 in /  0 mm 0 W/m2
20:10 39.6 °F /  4.2 °C 36.3 °F /  2.4 °C 29.58 in /  1001.6 hPa WNW 10.0 mph /  16.1 km/h 46.0 mph /  74 km/h 88 % 0.00 in /  0 mm 0 W/m2
20:15 39.7 °F /  4.3 °C 36.4 °F /  2.4 °C 29.58 in /  1001.6 hPa WNW 9.0 mph /  14.5 km/h 46.0 mph /  74 km/h 88 % 0.00 in /  0 mm 0 W/m2
20:20 39.7 °F /  4.3 °C 36.4 °F /  2.4 °C 29.59 in /  1001.9 hPa WNW 9.0 mph /  14.5 km/h 9.0 mph /  14.5 km/h 88 % 0.00 in /  0 mm 0 W/m2
20:25 39.8 °F /  4.3 °C 36.5 °F /  2.5 °C 29.59 in /  1001.9 hPa WNW 9.0 mph /  14.5 km/h 10.0 mph /  16.1 km/h 88 % 0.00 in /  0 mm 0 W/m2
20:30 39.8 °F /  4.3 °C 36.2 °F /  2.3 °C 29.60 in /  1002.3 hPa West 9.0 mph /  14.5 km/h 9.0 mph /  14.5 km/h 87 % 0.00 in /  0 mm 0 W/m2
20:40 39.8 °F /  4.3 °C 36.2 °F /  2.3 °C 29.61 in /  1002.6 hPa WNW 9.0 mph /  14.5 km/h 9.0 mph /  14.5 km/h 87 % 0.00 in /  0 mm 0 W/m2
20:45 39.8 °F /  4.3 °C 36.2 °F /  2.3 °C 29.61 in /  1002.6 hPa West 8.0 mph /  12.9 km/h 46.0 mph /  74 km/h 87 % 0.00 in /  0 mm 0 W/m2
20:50 39.8 °F /  4.3 °C 36.2 °F /  2.3 °C 29.61 in /  1002.6 hPa NW 7.0 mph /  11.3 km/h 46.0 mph /  74 km/h 87 % 0.00 in /  0 mm 0 W/m2
21:00 39.8 °F /  4.3 °C 36.2 °F /  2.3 °C 29.62 in /  1002.9 hPa West 6.0 mph /  9.7 km/h 6.0 mph /  9.7 km/h 87 % 0.00 in /  0 mm 0 W/m2
21:05 39.8 °F /  4.3 °C 36.2 °F /  2.3 °C 29.62 in /  1002.9 hPa West 5.0 mph /  8 km/h 46.0 mph /  74 km/h 87 % 0.00 in /  0 mm 0 W/m2
21:15 39.8 °F /  4.3 °C 36.2 °F /  2.3 °C 29.62 in /  1002.9 hPa WNW 5.0 mph /  8 km/h 46.0 mph /  74 km/h 87 % 0.00 in /  0 mm 0 W/m2
21:20 39.9 °F /  4.4 °C 36.3 °F /  2.4 °C 29.62 in /  1002.9 hPa WNW 8.0 mph /  12.9 km/h 8.0 mph /  12.9 km/h 87 % 0.00 in /  0 mm 0 W/m2
21:25 39.9 °F /  4.4 °C 36.3 °F /  2.4 °C 29.63 in /  1003.3 hPa WNW 7.0 mph /  11.3 km/h 46.0 mph /  74 km/h 87 % 0.00 in /  0 mm 0 W/m2
21:30 40.0 °F /  4.4 °C 36.2 °F /  2.3 °C 29.63 in /  1003.3 hPa WSW 8.0 mph /  12.9 km/h 46.0 mph /  74 km/h 86 % 0.00 in /  0 mm 0 W/m2
21:35 40.0 °F /  4.4 °C 36.2 °F /  2.3 °C 29.63 in /  1003.3 hPa WNW 8.0 mph /  12.9 km/h 46.0 mph /  74 km/h 86 % 0.00 in /  0 mm 0 W/m2
21:45 40.1 °F /  4.5 °C 36.2 °F /  2.3 °C 29.64 in /  1003.6 hPa WNW 8.0 mph /  12.9 km/h 13.0 mph /  20.9 km/h 86 % 0.00 in /  0 mm 0 W/m2
21:50 40.1 °F /  4.5 °C 36.0 °F /  2.2 °C 29.64 in /  1003.6 hPa WNW 8.0 mph /  12.9 km/h 8.0 mph /  12.9 km/h 85 % 0.00 in /  0 mm 0 W/m2
21:55 40.1 °F /  4.5 °C 36.0 °F /  2.2 °C 29.65 in /  1003.9 hPa West 8.0 mph /  12.9 km/h 46.0 mph /  74 km/h 85 % 0.00 in /  0 mm 0 W/m2
22:00 40.0 °F /  4.4 °C 36.2 °F /  2.3 °C 29.65 in /  1003.9 hPa WNW 7.0 mph /  11.3 km/h 46.0 mph /  74 km/h 86 % 0.00 in /  0 mm 0 W/m2
22:05 39.9 °F /  4.4 °C 36.1 °F /  2.3 °C 29.65 in /  1003.9 hPa WNW 7.0 mph /  11.3 km/h 46.0 mph /  74 km/h 86 % 0.00 in /  0 mm 0 W/m2
22:10 39.8 °F /  4.3 °C 36.0 °F /  2.2 °C 29.66 in /  1004.3 hPa West 7.0 mph /  11.3 km/h 46.0 mph /  74 km/h 86 % 0.00 in /  0 mm 0 W/m2
22:20 39.6 °F /  4.2 °C 35.5 °F /  1.9 °C 29.66 in /  1004.3 hPa West 10.0 mph /  16.1 km/h 46.0 mph /  74 km/h 85 % 0.00 in /  0 mm 0 W/m2
22:25 39.4 °F /  4.1 °C 35.3 °F /  1.8 °C 29.66 in /  1004.3 hPa WNW 10.0 mph /  16.1 km/h 46.0 mph /  74 km/h 85 % 0.00 in /  0 mm 0 W/m2
22:35 39.2 °F /  4 °C 35.4 °F /  1.9 °C 29.66 in /  1004.3 hPa NW 10.0 mph /  16.1 km/h 46.0 mph /  74 km/h 86 % 0.00 in /  0 mm 0 W/m2
22:40 39.0 °F /  3.9 °C 35.2 °F /  1.8 °C 29.66 in /  1004.3 hPa West 11.0 mph /  17.7 km/h 46.0 mph /  74 km/h 86 % 0.00 in /  0 mm 0 W/m2
22:45 38.9 °F /  3.8 °C 35.4 °F /  1.9 °C 29.67 in /  1004.6 hPa West 11.0 mph /  17.7 km/h 46.0 mph /  74 km/h 87 % 0.00 in /  0 mm 0 W/m2
22:55 38.9 °F /  3.8 °C 35.4 °F /  1.9 °C 29.67 in /  1004.6 hPa WNW 11.0 mph /  17.7 km/h 46.0 mph /  74 km/h 87 % 0.00 in /  0 mm 0 W/m2
23:00 38.9 °F /  3.8 °C 35.4 °F /  1.9 °C 29.67 in /  1004.6 hPa WNW 12.0 mph /  19.3 km/h 12.0 mph /  19.3 km/h 87 % 0.00 in /  0 mm 0 W/m2
23:05 38.9 °F /  3.8 °C 35.4 °F /  1.9 °C 29.67 in /  1004.6 hPa West 12.0 mph /  19.3 km/h 46.0 mph /  74 km/h 87 % 0.00 in /  0 mm 0 W/m2
23:10 38.9 °F /  3.8 °C 35.6 °F /  2 °C 29.66 in /  1004.3 hPa West 11.0 mph /  17.7 km/h 11.0 mph /  17.7 km/h 88 % 0.00 in /  0 mm 0 W/m2
23:15 38.9 °F /  3.8 °C 35.6 °F /  2 °C 29.67 in /  1004.6 hPa NW 10.0 mph /  16.1 km/h 15.0 mph /  24.1 km/h 88 % 0.00 in /  0 mm 0 W/m2
23:25 38.9 °F /  3.8 °C 35.6 °F /  2 °C 29.68 in /  1005 hPa WNW 11.0 mph /  17.7 km/h 46.0 mph /  74 km/h 88 % 0.00 in /  0 mm 0 W/m2
23:30 39.0 °F /  3.9 °C 35.7 °F /  2.1 °C 29.68 in /  1005 hPa West 11.0 mph /  17.7 km/h 11.0 mph /  17.7 km/h 88 % 0.00 in /  0 mm 0 W/m2
23:35 39.1 °F /  3.9 °C 35.8 °F /  2.1 °C 29.68 in /  1005 hPa West 12.0 mph /  19.3 km/h 18.0 mph /  29 km/h 88 % 0.00 in /  0 mm 0 W/m2
23:40 39.2 °F /  4 °C 35.9 °F /  2.2 °C 29.68 in /  1005 hPa NW 13.0 mph /  20.9 km/h 13.0 mph /  20.9 km/h 88 % 0.00 in /  0 mm 0 W/m2
23:45 39.3 °F /  4.1 °C 36.0 °F /  2.2 °C 29.69 in /  1005.3 hPa NW 11.0 mph /  17.7 km/h 46.0 mph /  74 km/h 88 % 0.00 in /  0 mm 0 W/m2
23:50 39.3 °F /  4.1 °C 36.0 °F /  2.2 °C 29.69 in /  1005.3 hPa West 10.0 mph /  16.1 km/h 10.0 mph /  16.1 km/h 88 % 0.00 in /  0 mm 0 W/m2
Delerius-Weather
Compliments of Weather Underground - 2 mb

Data updates at regular intervals.